• Join FlightAware (Why Join?)
  • Login
  • US Flag 
09:14AM EDT


 

Airport Tracker/Info


-or-


 

Live Flight TrackerFlight Track Log ✈ SWA1725 ✈ 07-Apr-2013 ✈ KSMF - KMDW

Flight Track Log - Related Links

Times and Time Zones

All times are in EDT time to prevent confusion due to time zone crossing. See the SWA1725 flight status page for this flight to view local times or setup timezone preferences in your user account.

Time Position Orientation Groundspeed Altitude Reporting Facility
EDT Latitude Longitude Course Direction KTS MPH feet Rate Location/Type
05:05PM 38.6497 -121.5669 72° East 177 204 2,000  Level Oakland Center
05:06PM 38.6242 -121.4931 114° Southeast 241 277 4,000 2,100 Climbing Oakland Center
05:07PM 38.6244 -121.3978 90° East 269 310 6,400 2,640 Climbing Oakland Center
05:08PM 38.6256 -121.2714 89° East 297 342 9,400 2,280 Climbing Oakland Center
05:09PM 38.6250 -121.1503 90° East 336 387 11,100 2,040 Climbing Oakland Center
05:10PM 38.9271 -120.6451 72° East  Level Estimated
05:10PM 38.6236 -121.0286 91° East 374 430 13,600  Level Oakland Center
05:11PM 38.6231 -120.8856 90° East 393 452 16,400 2,640 Climbing Oakland Center
05:12PM 38.6222 -120.7369 90° East 411 473 19,000 2,580 Climbing Oakland Center
05:13PM 38.6208 -120.5486 90° East 438 504 21,800 2,400 Climbing Oakland Center
05:14PM 38.6197 -120.3847 90° East 458 527 24,000 1,980 Climbing Oakland Center
05:15PM 38.6206 -120.2169 90° East 470 541 25,900 1,740 Climbing Oakland Center
05:16PM 38.6414 -120.0444 81° East 489 563 27,600 1,560 Climbing Oakland Center
05:17PM 38.6631 -119.8689 81° East 500 575 29,200 1,560 Climbing Oakland Center
05:18PM 38.6867 -119.6867 81° East 501 577 30,800 1,440 Climbing Oakland Center
05:19PM 38.7072 -119.5039 82° East 517 595 32,200 1,500 Climbing Oakland Center
05:20PM 38.7269 -119.3192 82° East 524 603 33,900 1,440 Climbing Oakland Center
05:21PM 38.7469 -119.1394 82° East 515 593 35,200 1,200 Climbing Oakland Center
05:22PM 38.7672 -118.9617 82° East 509 586 36,400 840 Climbing Oakland Center
05:23PM 38.7917 -118.7433 82° East 519 597 37,000 240 Climbing Oakland Center
05:24PM 38.8114 -118.5589 82° East 525 604 37,000  Level Oakland Center
05:25PM 38.8317 -118.3767 82° East 522 601 37,000  Level Oakland Center
05:26PM 38.8503 -118.1950 82° East 519 597 37,000  Level Oakland Center
05:27PM 38.8697 -118.0131 82° East 518 596 37,000  Level Oakland Center
05:28PM 38.8878 -117.8325 83° East 515 593 37,000  Level Oakland Center
05:29PM 38.9044 -117.6497 83° East 515 593 37,000  Level Oakland Center
05:30PM 38.9231 -117.4694 82° East 514 592 37,000  Level Oakland Center
05:31PM 38.9439 -117.2547 83° East 508 585 37,000  Level Oakland Center
05:32PM 38.9611 -117.0742 83° East 511 588 37,000  Level Oakland Center
05:33PM 38.9778 -116.8894 83° East 507 583 37,000  Level Oakland Center
05:34PM 38.9950 -116.7069 83° East 510 587 37,000  Level Oakland Center
05:35PM 39.0100 -116.5258 84° East 509 586 37,000  Level Salt Lake Center
05:36PM 39.0272 -116.3425 83° East 514 592 37,000  Level Salt Lake Center
05:38PM 39.0436 -116.1622 83° East 510 587 37,000  Level Salt Lake Center
05:39PM 39.0575 -115.9783 84° East 515 593 37,000  Level Salt Lake Center
05:40PM 39.0736 -115.7933 84° East 519 597 37,000  Level Salt Lake Center
05:41PM 39.0892 -115.6083 84° East 520 598 37,000  Level Salt Lake Center
05:42PM 39.1033 -115.4236 84° East 519 597 37,000  Level Salt Lake Center
05:43PM 39.1219 -115.2278 83° East 531 611 37,000  Level Salt Lake Center
05:44PM 39.1383 -115.0039 85° East 525 604 37,000  Level Salt Lake Center
05:45PM 39.1511 -114.8206 85° East 517 595 37,000  Level Salt Lake Center
05:46PM 39.1669 -114.6311 84° East 528 608 37,000  Level Salt Lake Center
05:47PM 39.1803 -114.4417 85° East 531 611 37,000  Level Salt Lake Center
05:48PM 39.1936 -114.2572 85° East 522 601 37,000  Level Salt Lake Center
05:49PM 39.2067 -114.0736 85° East 517 595 37,000  Level Salt Lake Center
05:50PM 39.2394 -113.8900 77° East 524 603 37,000  Level Salt Lake Center
05:51PM 39.2736 -113.7069 76° East 525 604 37,000  Level Salt Lake Center
05:52PM 39.3147 -113.4858 76° East 527 606 37,000  Level Salt Lake Center
05:53PM 39.3475 -113.3033 77° East 524 603 37,000  Level Salt Lake Center
05:54PM 39.3817 -113.1178 77° East 527 606 37,000  Level Salt Lake Center
05:55PM 39.4153 -112.9319 77° East 530 610 37,000  Level Salt Lake Center
05:56PM 39.4492 -112.7467 77° East 530 610 37,000  Level Salt Lake Center
05:57PM 39.4828 -112.5625 77° East 531 611 37,000  Level Salt Lake Center
05:58PM 39.5150 -112.3811 77° East 523 602 37,000  Level Salt Lake Center
05:59PM 39.5531 -112.1633 77° East 522 601 37,000  Level Salt Lake Center
06:00PM 39.5844 -111.9775 78° East 529 609 37,000  Level Salt Lake Center
06:01PM 39.6158 -111.7975 77° East 519 597 37,000  Level Salt Lake Center
06:02PM 39.6469 -111.6131 78° East 526 605 37,000  Level Salt Lake Center
06:03PM 39.6769 -111.4286 78° East 526 605 37,000  Level Salt Lake Center
06:04PM 39.7086 -111.2428 77° East 522 601 37,000  Level Salt Lake Center
06:05PM 39.7403 -111.0350 79° East 526 605 37,000  Level Salt Lake Center
06:06PM 39.7703 -110.8578 78° East 524 603 37,000  Level Salt Lake Center
06:07PM 39.8039 -110.6503 78° East 525 604 37,000  Level Salt Lake Center
06:08PM 39.8308 -110.4739 79° East 521 600 37,000  Level Salt Lake Center
06:09PM 39.8622 -110.2661 79° East 524 603 37,000  Level Salt Lake Center
06:10PM 39.8906 -110.0881 78° East 525 604 37,000  Level Salt Lake Center
06:11PM 39.9183 -109.9106 78° East 523 602 37,000  Level Salt Lake Center
06:12PM 39.9486 -109.7000 79° East 527 606 37,000  Level Salt Lake Center
06:13PM 39.9667 -109.5792 79° East 526 605 37,000  Level Denver Center
06:14PM 39.9969 -109.3714 79° East 522 601 37,000  Level Denver Center
06:15PM 40.0233 -109.1928 79° East 522 601 37,000  Level Denver Center
06:16PM 40.0536 -108.9847 79° East 522 601 37,000  Level Denver Center
06:17PM 40.0786 -108.8050 80° East 520 598 37,000  Level Denver Center
06:18PM 40.1089 -108.5958 79° East 521 600 37,000  Level Denver Center
06:19PM 40.1339 -108.4169 80° East 521 600 37,000  Level Denver Center
06:20PM 40.1575 -108.2372 80° East 521 600 37,000  Level Denver Center
06:21PM 40.1869 -108.0278 80° East 523 602 37,000  Level Denver Center
06:22PM 40.2100 -107.8489 80° East 520 598 37,000  Level Denver Center
06:24PM 40.2375 -107.6406 80° East 520 598 37,000  Level Denver Center
06:25PM 40.2608 -107.4636 80° East 516 594 37,000 480 Level Denver Center
06:26PM 40.2831 -107.2864 81° East 515 593 38,000 960 Climbing Denver Center
06:27PM 40.3103 -107.0808 80° East 514 592 39,000 480 Climbing Denver Center
06:28PM 40.3319 -106.9047 81° East 512 589 39,000  Level Denver Center
06:29PM 40.3564 -106.7006 81° East 515 593 39,000  Level Denver Center
06:30PM 40.3797 -106.5189 80° East 508 585 39,000  Level Denver Center
06:31PM 40.4031 -106.3228 81° East 502 578 39,000  Level Denver Center
06:32PM 40.4233 -106.1567 81° East 500 575 39,000  Level Denver Center
06:33PM 40.4419 -105.9792 82° East 499 574 39,000  Level Denver Center
06:34PM 40.4631 -105.7967 81° East 499 574 39,000  Level Denver Center
06:35PM 40.4881 -105.5831 81° East 501 577 39,000  Level Denver Center
06:36PM 40.5081 -105.4025 82° East 496 571 39,000  Level Denver Center
06:37PM 40.5275 -105.2178 82° East 501 577 39,000  Level Denver Center
06:38PM 40.5475 -105.0369 82° East 495 570 39,100  Climbing Denver Center
06:39PM 40.5672 -104.8517 82° East 503 579 39,000 -60 Descending Denver Center
06:40PM 40.5867 -104.6717 82° East 495 570 39,000  Level Denver Center
06:41PM 40.6056 -104.4894 82° East 496 571 39,000  Level Denver Center
06:42PM 40.6261 -104.2767 83° East 496 571 39,000  Level Denver Center
06:43PM 40.6444 -104.1000 82° East 485 558 39,000  Level Denver Center
06:44PM 40.6650 -103.8908 83° East 484 557 39,000  Level Denver Center
06:45PM 40.6819 -103.7100 83° East 493 567 39,000  Level Denver Center
06:46PM 40.7003 -103.5292 82° East 494 568 39,000  Level Denver Center
06:47PM 40.7156 -103.3472 84° East 495 570 39,000  Level Denver Center
06:48PM 40.7322 -103.1642 83° East 500 575 39,000  Level Denver Center
06:49PM 40.7508 -102.9742 83° East 500 575 39,000  Level Denver Center
06:50PM 40.7656 -102.7983 84° East 504 580 39,000  Level Denver Center
06:51PM 40.7825 -102.5953 84° East 502 578 39,000  Level Denver Center
06:53PM 40.7986 -102.4197 83° East 504 580 39,000  Level Denver Center
06:54PM 40.8150 -102.2158 84° East 501 577 39,000  Level Denver Center
06:55PM 40.8283 -102.0411 84° East 502 578 39,000  Level Denver Center
06:56PM 40.8433 -101.8672 83° East 498 573 39,000  Level Denver Center
06:57PM 40.8600 -101.6642 84° East 498 573 39,000  Level Denver Center
06:58PM 40.8717 -101.4903 85° East 498 573 39,000  Level Denver Center
06:59PM 40.8878 -101.2878 84° East 495 570 39,000  Level Denver Center
07:00PM 40.9014 -101.1144 84° East 494 568 39,000  Level Denver Center
07:01PM 40.9147 -100.9136 85° East 490 564 39,000  Level Denver Center
07:02PM 40.9269 -100.7389 85° East 487 560 39,000  Level Denver Center
07:03PM 40.9408 -100.5633 84° East 490 564 39,000  Level Denver Center
07:04PM 40.9533 -100.3617 85° East 491 565 39,000  Level Denver Center
07:05PM 40.9650 -100.1883 85° East 493 567 39,000  Level Denver Center
07:06PM 40.9756 -100.0150 85° East 494 568 39,000  Level Denver Center
07:07PM 40.9883 -99.8153 85° East 489 563 39,000  Level Denver Center
07:08PM 40.9986 -99.6386 86° East 491 565 39,000  Level Denver Center
07:09PM 41.0100 -99.4597 85° East 490 564 39,000  Level Denver Center
07:10PM 41.0200 -99.2800 86° East 490 564 39,000  Level Denver Center
07:11PM 41.0653 -99.0744 74° East 500 575 39,000  Level Denver Center
07:11PM 41.0886 -99.0167 62° Northeast 501 577 39,000  Level Minneapolis Center
07:12PM 41.1264 -98.9175 63° Northeast 499 574 39,000  Level Denver Center
07:13PM 41.1517 -98.8511 63° Northeast 502 578 39,000  Level Minneapolis Center
07:14PM 41.2167 -98.6828 63° Northeast 506 582 39,000  Level Minneapolis Center
07:15PM 41.2811 -98.5142 63° Northeast 512 589 39,000  Level Minneapolis Center
07:16PM 41.3558 -98.3150 63° Northeast 513 590 39,000  Level Minneapolis Center
07:17PM 41.4194 -98.1458 63° Northeast 512 589 39,000  Level Minneapolis Center
07:18PM 41.4700 -97.9669 69° East 506 582 39,000  Level Minneapolis Center
07:19PM 41.5108 -97.7894 73° East 502 578 39,000  Level Minneapolis Center
07:20PM 41.5564 -97.6156 71° East 499 574 39,000 -540 Level Minneapolis Center
07:21PM 41.5867 -97.4383 77° East 492 566 37,900 -1,020 Descending Minneapolis Center
07:22PM 41.5781 -97.2197 93° East 493 567 37,000 -480 Descending Minneapolis Center
07:23PM 41.5750 -97.0450 91° East 477 549 37,000  Level Minneapolis Center
07:24PM 41.5725 -96.8667 91° East 477 549 37,000  Level Minneapolis Center
07:25PM 41.5675 -96.6925 92° East 473 544 37,000  Level Minneapolis Center
07:26PM 41.5631 -96.5144 92° East 475 547 37,000  Level Minneapolis Center
07:27PM 41.5589 -96.3428 92° East 476 548 37,000  Level Minneapolis Center
07:28PM 41.5506 -96.1614 93° East 487 560 37,000  Level Minneapolis Center
07:29PM 41.5444 -95.9442 92° East 488 562 37,000  Level Minneapolis Center
07:30PM 41.5386 -95.7628 92° East 491 565 37,000  Level Minneapolis Center
07:31PM 41.5325 -95.6033 93° East 488 562 37,000  Level Minneapolis Center
07:32PM 41.5261 -95.4222 93° East 487 560 37,000  Level Minneapolis Center
07:33PM 41.5181 -95.2036 93° East 489 563 37,000  Level Minneapolis Center
07:34PM 41.5103 -95.0231 93° East 487 560 37,000  Level Minneapolis Center
07:35PM 41.5031 -94.8444 93° East 484 557 37,000  Level Minneapolis Center
07:36PM 41.4967 -94.6667 93° East 481 554 37,000  Level Minneapolis Center
07:37PM 41.4881 -94.4889 94° East 481 554 37,000  Level Minneapolis Center
07:38PM 41.4808 -94.3100 93° East 483 556 37,000  Level Minneapolis Center
07:39PM 41.4678 -94.1358 96° East 483 556 37,000  Level Minneapolis Center
07:40PM 41.4589 -93.9233 93° East 481 554 37,000  Level Minneapolis Center
07:41PM 41.4492 -93.7478 94° East 481 554 37,000  Level Minneapolis Center
07:42PM 41.4414 -93.5692 93° East 484 557 37,000  Level Minneapolis Center
07:43PM 41.4319 -93.3889 94° East 488 562 37,000 -240 Level Minneapolis Center
07:44PM 41.4219 -93.2114 94° East 486 559 36,600 -720 Descending Minneapolis Center
07:45PM 41.4119 -93.0322 94° East 487 560 35,600 -1,020 Descending Minneapolis Center
07:46PM 41.4008 -92.8483 95° East 493 567 34,600 -1,080 Descending Minneapolis Center
07:48PM 41.3878 -92.6247 94° East 503 579 33,500 -1,080 Descending Minneapolis Center
07:48PM 41.3825 -92.5469 95° East 510 587 33,000 -960 Descending Chicago Center
07:49PM 41.3717 -92.3711 95° East 507 583 32,100 -1,020 Descending Chicago Center
07:50PM 41.3581 -92.1544 95° East 496 571 31,000 -540 Descending Chicago Center
07:51PM 41.3467 -91.9797 95° East 482 555 31,000  Level Chicago Center
07:52PM 41.3347 -91.8103 95° East 470 541 31,000  Level Chicago Center
07:53PM 41.3233 -91.6386 95° East 470 541 31,000  Level Chicago Center
07:54PM 41.3078 -91.4353 96° East 467 537 31,000 -120 Level Chicago Center
07:55PM 41.2958 -91.2556 95° East 475 547 30,800 -1,200 Descending Chicago Center
07:56PM 41.2828 -91.0839 96° East 469 540 28,600 -2,040 Descending Chicago Center
07:57PM 41.2703 -90.9153 96° East 460 529 26,600 -2,040 Descending Chicago Center
07:58PM 41.2564 -90.7503 96° East 451 519 24,400 -1,800 Descending Chicago Center
07:59PM 41.2442 -90.5864 96° East 448 516 23,000 -1,140 Descending Chicago Center
08:00PM 41.2308 -90.4269 96° East 438 504 22,100 -900 Descending Chicago Center
08:01PM 41.2178 -90.2586 96° East 453 521 21,200 -900 Descending Chicago Center
08:02PM 41.2008 -90.0636 97° East 444 511 20,300 -1,620 Descending Chicago Center
08:04PM 41.1872 -89.9056 96° East 432 497 17,900 -2,280 Descending Chicago Center
08:05PM 41.1742 -89.7544 96° East 415 478 15,700 -1,500 Descending Chicago Center
08:06PM 41.1619 -89.6094 96° East 401 461 14,900 -780 Descending Chicago Center
08:07PM 41.1689 -89.4661 86° East 390 449 14,200 -840 Descending Chicago Center
08:08PM 41.1792 -89.3261 84° East 383 441 13,200 -1,140 Descending Chicago Center
08:09PM 41.1889 -89.1589 86° East 385 443 11,900 -1,560 Descending Chicago Center
08:10PM 41.1983 -89.0208 85° East 381 438 10,000 -960 Descending Chicago Center
08:11PM 41.2431 -88.9033 63° Northeast 363 418 10,000 -60 Level Chicago Center
08:12PM 41.2944 -88.8008 56° Northeast 337 388 9,900 -360 Descending Chicago Center
08:13PM 41.3425 -88.7117 54° Northeast 301 346 9,300 -960 Descending Chicago Center
08:14PM 41.3881 -88.6214 56° Northeast 295 339 8,000 -1,260 Descending Chicago Center
08:15PM 41.4314 -88.5028 64° Northeast 297 342 6,800 -1,020 Descending Chicago Center
08:16PM 41.4683 -88.4058 63° Northeast 294 338 5,900 -420 Descending Chicago Center
08:17PM 41.5044 -88.3111 63° Northeast 290 334 6,000  Climbing Chicago Center
08:18PM 41.5400 -88.2142 64° Northeast 289 333 6,000 -240 Level Chicago Center
08:19PM 41.5775 -88.1181 62° Northeast 289 333 5,600 -720 Descending Chicago Center
08:20PM 41.6139 -88.0217 63° Northeast 288 331 4,600 -1,200 Descending Chicago Center
08:21PM 41.6497 -87.9278 63° Northeast 286 329 3,200 -1,020 Descending Chicago Center
08:22PM 41.7111 -87.8458 45° Northeast 266 306 2,500 -840 Descending Chicago Center
08:23PM 41.7500 -87.7833 50° Northeast 161 185 1,400 -420 Descending Chicago TRACON
08:24PM 41.7500 -87.7500 90° East 158 182 1,700 480 Climbing Chicago TRACON
08:25PM 41.7167 -87.7500 180° South 177 204 2,400 420 Climbing Chicago TRACON
08:26PM 41.6667 -87.7667 194° South 172 198 2,500  Climbing Chicago TRACON
08:27PM 41.6667 -87.8333 270° West 178 205 2,500  Level Chicago TRACON
08:28PM 41.7000 -87.8500 340° North 185 213 2,500 -300 Level Chicago TRACON
08:29PM 41.7333 -87.8167 37° Northeast 158 182 1,900 -660 Descending Chicago TRACON
08:30PM 41.7667 -87.7833 37° Northeast 124 143 1,200 -720 Descending Chicago TRACON